Aviation Digital Data Service (ADDS)

Output produced by METARs form (1359 UTC 02 September 2014)
found at http://aviationweather.gov/adds/metars/
 
KVQQ 021120Z 0212/0312 VRB02KT P6SM SCT250 
     FM021600 15004KT P6SM SCT035 SCT250 
     FM021830 11008KT P6SM VCTS SCT035CB BKN250 
     FM022300 13007KT P6SM SCT050 BKN250 
     FM030200 10003KT P6SM BKN250